Sylvan Lake, Michigan
Current Conditions -  °F | °C
As of 6:05 PM on Wednesday 17 Dec 2014 (Local Time) from KPTK Reporting Station
Light Snow Light Snow  
Wind Chill: -9°   Ceiling: 2800
Heat Index: -3°   Visibility: 7mi
Dew Point: -7°   Wind: 13mph
Humidity: 75%   Direction: 290°WNW
Pressure: 30.07"   Gusts: NA
Location:  42.6112°N, 83.3377°W
Report Text: KPTK 172305Z 29011KT 7SM -SN SCT017 BKN028 OVC035 M03/M07 A3007 RMK AO2 P0000 T10281067
Loading
Personal Weather Stations






























Interactive Weather Map New forecast layout! Learn more

10-Day Weather Forecast

Advertisements
Track Severe Weather on mobile